Terminal Aerodrome Forecast
Issued by NWS Grand Forks, ND

Home | Current Version | Previous Version | Graphics & Text | Print | Product List | Glossary On
Versions: 1 2 3 4 5 6 7 8 9 10 11 12 13 14 15 16
000
FTUS43 KFGF 150710 AAA
TAFGFK
TAF AMD
KGFK 150710Z 1507/1606 32017KT P6SM OVC019
     FM151100 33016G24KT P6SM OVC020
     FM151200 32015G24KT P6SM OVC040
     FM151700 33018KT P6SM BKN015
     FM152300 34012KT P6SM BKN020
     FM160300 34007KT P6SM BKN020=

USA.gov is the U.S. government's official web portal to all federal, state and local government web resources and services.